• Join FlightAware (Why Join?)
  • Login
  • US Flag 
11:49AM EDT


 

Airport Tracker/Info


-or-


 

Live Flight TrackerFlight Track Log ✈ GJS3615 ✈ 17-Apr-2013 ✈ KORD - KGSO

Flight Track Log - Related Links

Times and Time Zones

All times are in EDT time to prevent confusion due to time zone crossing. See the GJS3615 flight status page for this flight to view local times or setup timezone preferences in your user account.

Time Position Orientation Groundspeed Altitude Reporting Facility
EDT Latitude Longitude Course Direction KTS MPH feet Rate Location/Type
10:27AM 42.0000 -87.8500 90° East 178 205 3,200  Level Chicago TRACON
10:28AM 42.0000 -87.7667 90° East 243 280 4,800 840 Climbing Chicago TRACON
10:29AM 42.0167 -87.6667 77° East 261 300 5,000 960 Climbing Chicago TRACON
10:30AM 42.0167 -87.5667 90° East 268 308 6,800 2,220 Climbing Chicago TRACON
10:31AM 41.9333 -87.1214 90° East  Level FlightAware Approximate
10:32AM 41.9333 -86.9698 90° East  Level FlightAware Approximate
10:32AM 41.9903 -87.3631 100° East 303 349 11,800  Level Chicago Center
10:33AM 41.9731 -87.2472 101° East 314 361 13,900 1,740 Climbing Chicago Center
10:34AM 41.9539 -87.1194 101° East 342 394 15,400 1,920 Climbing Chicago Center
10:35AM 41.9444 -86.9544 94° East 368 423 17,900 1,740 Climbing Chicago Center
10:36AM 41.9464 -86.8108 89° East 384 442 19,000 1,140 Climbing Chicago Center
10:37AM 41.9500 -86.6744 88° East 401 461 20,300 1,320 Climbing Chicago Center
10:38AM 41.9347 -86.5206 98° East 417 480 21,800 1,380 Climbing Chicago Center
10:39AM 41.9119 -86.3631 101° East 430 495 23,200 1,380 Climbing Chicago Center
10:40AM 41.8822 -86.1683 102° East 443 510 24,700 1,260 Climbing Chicago Center
10:41AM 41.8575 -86.0006 101° East 457 526 25,900 1,140 Climbing Chicago Center
10:42AM 41.8308 -85.8289 102° East 467 537 27,100 1,140 Climbing Chicago Center
10:43AM 41.8047 -85.6547 101° East 474 545 28,300 1,020 Climbing Chicago Center
10:44AM 41.7789 -85.4764 101° East 479 551 29,300 900 Climbing Chicago Center
10:45AM 41.7492 -85.2900 102° East 492 566 30,200 840 Climbing Chicago Center
10:46AM 41.7197 -85.1069 102° East 496 571 31,100 900 Climbing Chicago Center
10:47AM 41.7019 -84.9947 102° East 491 565 31,700 960 Climbing Cleveland Center
10:48AM 41.6733 -84.8119 102° East 491 565 32,600 840 Climbing Cleveland Center
10:49AM 41.6614 -84.6275 95° East 491 565 33,500 900 Climbing Cleveland Center
10:50AM 41.6531 -84.4436 93° East 491 565 34,400 900 Climbing Cleveland Center
10:51AM 41.6467 -84.2597 93° East 496 571 35,300 840 Climbing Cleveland Center
10:52AM 41.6331 -84.0950 96° East 490 564 36,100 840 Climbing Cleveland Center
10:53AM 41.6239 -83.9139 94° East 490 564 37,000 420 Climbing Cleveland Center
10:54AM 41.6061 -83.7325 97° East 490 564 37,000  Level Cleveland Center
10:55AM 41.5372 -83.5792 121° Southeast 479 551 37,000  Level Cleveland Center
10:56AM 41.4147 -83.4711 147° Southeast 460 529 37,000  Level Cleveland Center
10:57AM 41.3022 -83.3886 151° Southeast 460 529 37,000  Level Cleveland Center
10:58AM 41.1894 -83.3119 153° Southeast 460 529 37,000  Level Cleveland Center
11:00AM 40.9297 -83.1250 151° Southeast 467 537 37,000  Level Indianapolis Center
11:01AM 40.8139 -83.0439 152° Southeast 469 540 37,000  Level Indianapolis Center
11:02AM 40.6981 -82.9647 153° Southeast 467 537 37,000  Level Indianapolis Center
11:03AM 40.5872 -82.8881 152° Southeast 451 519 37,000  Level Indianapolis Center
11:04AM 40.4839 -82.8175 153° Southeast 449 517 37,000  Level Indianapolis Center
11:05AM 40.3642 -82.7350 152° Southeast 451 519 37,000  Level Indianapolis Center
11:06AM 40.2369 -82.6472 152° Southeast 460 529 37,000  Level Indianapolis Center
11:07AM 40.1203 -82.5733 154° Southeast 461 531 37,000  Level Indianapolis Center
11:08AM 39.9981 -82.5175 161° South 459 528 37,000  Level Indianapolis Center
11:09AM 39.8756 -82.4611 161° South 460 529 37,000  Level Indianapolis Center
11:10AM 39.7531 -82.4033 160° South 462 532 37,000 -300 Level Indianapolis Center
11:11AM 39.6344 -82.3497 161° South 446 513 36,400 -840 Descending Indianapolis Center
11:12AM 39.5267 -82.2994 160° South 408 470 35,400 -960 Descending Indianapolis Center
11:13AM 39.4161 -82.2508 161° South 423 487 34,500 -960 Descending Indianapolis Center
11:14AM 39.3008 -82.1978 160° South 437 503 33,500 -780 Descending Indianapolis Center
11:15AM 39.1831 -82.1456 161° South 446 513 33,000 -300 Descending Indianapolis Center
11:16AM 39.0786 -82.0592 147° Southeast 451 519 33,000  Level Indianapolis Center
11:17AM 38.9861 -81.9500 137° Southeast 454 522 33,000  Level Indianapolis Center
11:18AM 38.8736 -81.8172 137° Southeast 456 525 33,000  Level Indianapolis Center
11:19AM 38.7797 -81.7078 138° Southeast 458 527 33,000  Level Indianapolis Center
11:20AM 38.6875 -81.5997 138° Southeast 455 524 33,000  Level Indianapolis Center
11:21AM 38.5922 -81.4908 138° Southeast 458 527 33,000  Level Indianapolis Center
11:22AM 38.5053 -81.3889 137° Southeast 455 524 33,000  Level Indianapolis Center
11:23AM 38.3922 -81.2589 138° Southeast 457 526 33,000  Level Indianapolis Center
11:24AM 38.2969 -81.1492 138° Southeast 460 529 33,000 -480 Level Indianapolis Center
11:25AM 38.2411 -81.0936 142° Southeast 470 541 32,300 -1,680 Descending Washington Center
11:26AM 38.1539 -80.9919 137° Southeast 483 556 30,500 -1,800 Descending Washington Center
11:26AM 38.1022 -80.9247 134° Southeast 478 550 29,600 -1,800 Descending Indianapolis Center
11:27AM 38.0044 -80.8158 139° Southeast 469 540 27,800 -1,680 Descending Indianapolis Center
11:28AM 37.9611 -80.7728 142° Southeast 470 541 27,100 -600 Descending Washington Center
11:29AM 37.8617 -80.6606 138° Southeast 455 524 27,000 -360 Descending Washington Center
11:30AM 37.7700 -80.5572 138° Southeast 447 514 26,400 -900 Descending Washington Center
11:31AM 37.6744 -80.4511 139° Southeast 447 514 25,300 -1,440 Descending Washington Center
11:32AM 37.5825 -80.3458 138° Southeast 447 514 23,600 -1,800 Descending Washington Center
11:33AM 37.5028 -80.2569 138° Southeast 441 507 21,800 -1,800 Descending Washington Center
11:34AM 37.4147 -80.1547 137° Southeast 441 507 20,100 -1,440 Descending Washington Center
11:35AM 37.3219 -80.0736 145° Southeast 431 496 19,000 -600 Descending Washington Center
11:36AM 37.2014 -80.0639 176° South 392 451 19,000 -180 Level Washington Center
11:37AM 37.0911 -80.0547 176° South 390 449 18,700 -600 Descending Washington Center
11:38AM 36.9828 -80.0486 177° South 390 449 17,800 -900 Descending Washington Center
11:40AM 36.8059 -80.0260 172° South  Level FlightAware Approximate
11:47AM 36.1013 -79.9411 28° Northeast  Level Estimated
11:48AM 36.1000 -79.9333 28° Northeast  Level FlightAware Approximate
11:49AM 36.1013 -79.9411 28° Northeast  Level Estimated
11:50AM 36.1000 -79.9333 28° Northeast  Level FlightAware Approximate
11:51AM 36.1013 -79.9411 28° Northeast  Level Estimated
11:52AM 36.1000 -79.9333 28° Northeast  Level FlightAware Approximate